createdAt,value
2019-01-15T00:00:43.865Z,75.65
2019-01-15T00:03:13.375Z,76.21
2019-01-15T00:05:42.782Z,74.56
2019-01-15T00:08:13.784Z,74.49
2019-01-15T00:10:43.327Z,74.22
2019-01-15T00:13:12.749Z,74.05
2019-01-15T00:15:42.181Z,73.45
2019-01-15T00:18:11.608Z,72.05
2019-01-15T00:20:41.028Z,71.06
2019-01-15T00:23:10.590Z,72.10
2019-01-15T00:25:39.979Z,72.09
2019-01-15T00:28:09.396Z,72.49
2019-01-15T00:30:38.878Z,72.74
2019-01-15T00:33:08.280Z,73.82
2019-01-15T00:35:37.695Z,74.31
2019-01-15T00:38:07.197Z,74.83
2019-01-15T00:40:36.622Z,74.86
2019-01-15T00:43:06.053Z,74.83
2019-01-15T00:45:35.523Z,74.94
2019-01-15T00:48:05.087Z,75.48
2019-01-15T00:50:34.530Z,75.46
2019-01-15T00:53:04.039Z,75.12
2019-01-15T00:55:33.466Z,74.78
2019-01-15T00:58:02.906Z,75.81
2019-01-15T01:00:32.406Z,75.52
2019-01-15T01:03:02.205Z,76.20
2019-01-15T01:05:31.666Z,76.01
2019-01-15T01:08:01.235Z,76.10
2019-01-15T01:10:30.652Z,76.40
2019-01-15T01:13:00.082Z,77.03
2019-01-15T01:15:29.579Z,77.76
2019-01-15T01:17:59.083Z,77.78
2019-01-15T01:20:28.467Z,77.30
2019-01-15T01:22:57.895Z,77.70
2019-01-15T01:25:27.317Z,77.25
2019-01-15T01:27:56.752Z,77.32
2019-01-15T01:30:26.181Z,77.69
2019-01-15T01:32:55.620Z,76.72
2019-01-15T01:35:25.039Z,77.63
2019-01-15T01:37:54.458Z,77.70
2019-01-15T01:40:23.890Z,77.61
2019-01-15T01:42:53.346Z,77.55
2019-01-15T01:45:22.787Z,77.58
2019-01-15T01:47:52.217Z,77.53
2019-01-15T01:50:21.639Z,77.64
2019-01-15T01:52:51.081Z,77.54
2019-01-15T01:55:20.514Z,77.75
2019-01-15T01:57:49.926Z,77.12
2019-01-15T02:00:20.509Z,76.95
2019-01-15T02:02:50.074Z,76.87
2019-01-15T02:05:19.756Z,77.25
2019-01-15T02:07:49.345Z,76.89
2019-01-15T02:10:19.248Z,76.25
2019-01-15T02:12:48.735Z,76.22
2019-01-15T02:15:21.178Z,75.81
2019-01-15T02:17:50.604Z,76.51
2019-01-15T02:20:20.886Z,76.74
2019-01-15T02:22:50.443Z,76.47
2019-01-15T02:25:19.866Z,76.44
2019-01-15T02:27:50.369Z,75.63
2019-01-15T02:30:24.991Z,75.21
2019-01-15T02:32:54.596Z,75.58
2019-01-15T02:35:24.039Z,75.35
2019-01-15T02:37:53.450Z,75.13
2019-01-15T02:40:22.878Z,75.65
2019-01-15T02:42:52.636Z,76.13
2019-01-15T02:45:22.125Z,76.02
2019-01-15T02:47:51.614Z,75.80
2019-01-15T02:50:21.875Z,76.33
2019-01-15T02:52:51.383Z,77.11
2019-01-15T02:55:20.799Z,77.74
2019-01-15T02:57:50.292Z,78.44
2019-01-15T03:00:23.274Z,78.07
2019-01-15T03:02:52.844Z,77.18
2019-01-15T03:05:22.439Z,76.92
2019-01-15T03:07:51.932Z,77.37
2019-01-15T03:10:22.498Z,77.84
2019-01-15T03:12:56.709Z,77.50
2019-01-15T03:15:24.188Z,77.71
2019-01-15T03:17:53.692Z,78.89
2019-01-15T03:20:23.269Z,79.79
2019-01-15T03:22:52.699Z,79.55
2019-01-15T03:25:22.302Z,79.84
2019-01-15T03:27:51.730Z,80.46
2019-01-15T03:30:23.282Z,79.98
2019-01-15T03:32:53.116Z,79.61
2019-01-15T03:35:22.537Z,79.18
2019-01-15T03:37:52.036Z,79.30
2019-01-15T03:40:24.163Z,79.09
2019-01-15T03:42:53.746Z,78.52
2019-01-15T03:45:23.179Z,77.98
2019-01-15T03:47:52.611Z,77.87
2019-01-15T03:50:22.293Z,77.26
2019-01-15T03:52:51.728Z,77.41
2019-01-15T03:55:21.454Z,77.20
2019-01-15T03:57:50.860Z,77.43
2019-01-15T04:00:22.692Z,77.37
2019-01-15T04:02:52.110Z,77.08
2019-01-15T04:05:21.572Z,77.85
2019-01-15T04:07:52.641Z,77.45
2019-01-15T04:10:22.222Z,77.00
2019-01-15T04:12:51.682Z,76.71
2019-01-15T04:15:21.096Z,76.21
2019-01-15T04:17:50.520Z,74.86
2019-01-15T04:20:19.990Z,74.64
2019-01-15T04:22:49.421Z,74.08
2019-01-15T04:25:18.866Z,73.74
2019-01-15T04:27:48.294Z,73.64
2019-01-15T04:30:20.674Z,73.71
2019-01-15T04:32:50.137Z,73.99
2019-01-15T04:35:19.554Z,72.22
2019-01-15T04:37:49.010Z,72.65
2019-01-15T04:40:20.369Z,73.35
2019-01-15T04:42:49.787Z,73.05
2019-01-15T04:45:21.141Z,73.55
2019-01-15T04:47:50.703Z,73.64
2019-01-15T04:50:20.203Z,77.62
2019-01-15T04:52:51.343Z,75.62
2019-01-15T04:55:20.839Z,75.08
2019-01-15T04:57:50.238Z,74.71
2019-01-15T05:00:22.178Z,74.76
2019-01-15T05:02:52.036Z,74.99
2019-01-15T05:05:21.511Z,75.81
2019-01-15T05:07:50.925Z,75.68
2019-01-15T05:10:20.454Z,75.96
2019-01-15T05:12:49.917Z,75.95
2019-01-15T05:15:19.328Z,77.40
2019-01-15T05:17:48.746Z,76.38
2019-01-15T05:20:20.025Z,76.93
2019-01-15T05:22:49.534Z,76.78
2019-01-15T05:25:22.649Z,76.76
2019-01-15T05:27:52.206Z,76.73
2019-01-15T05:30:27.181Z,76.23
2019-01-15T05:32:56.768Z,76.06
2019-01-15T05:35:26.958Z,76.03
2019-01-15T05:37:56.365Z,75.96
2019-01-15T05:40:25.801Z,75.33
2019-01-15T05:42:55.292Z,74.81
2019-01-15T05:45:26.486Z,73.54
2019-01-15T05:47:57.545Z,73.59
2019-01-15T05:50:37.075Z,73.92
2019-01-15T05:53:06.484Z,73.01
2019-01-15T05:55:35.919Z,74.01
2019-01-15T05:58:05.467Z,73.92
2019-01-15T06:00:34.975Z,73.34
2019-01-15T06:03:04.880Z,73.22
2019-01-15T06:05:34.311Z,73.23
2019-01-15T06:08:03.732Z,73.48
2019-01-15T06:10:33.161Z,73.26
2019-01-15T06:13:02.594Z,73.61
2019-01-15T06:15:32.023Z,73.34
2019-01-15T06:18:01.488Z,73.66
2019-01-15T06:20:30.916Z,73.77
2019-01-15T06:23:00.336Z,78.24
2019-01-15T06:25:29.788Z,73.12
2019-01-15T06:27:59.194Z,73.17
2019-01-15T06:30:28.627Z,73.17
2019-01-15T06:32:58.049Z,73.53
2019-01-15T06:35:27.521Z,73.44
2019-01-15T06:37:56.923Z,73.65
2019-01-15T06:40:26.364Z,73.46
2019-01-15T06:42:55.779Z,73.75
2019-01-15T06:45:31.186Z,73.70
2019-01-15T06:48:00.882Z,74.13
2019-01-15T06:50:30.321Z,73.86
2019-01-15T06:52:59.748Z,73.87
2019-01-15T06:55:29.192Z,74.23
2019-01-15T06:57:58.608Z,74.10
2019-01-15T07:00:30.818Z,74.07
2019-01-15T07:03:00.504Z,74.33
2019-01-15T07:05:29.955Z,74.05
2019-01-15T07:07:59.381Z,74.53
2019-01-15T07:10:39.491Z,74.23
2019-01-15T07:13:08.996Z,74.15
2019-01-15T07:15:38.453Z,74.82
2019-01-15T07:18:07.948Z,75.32
2019-01-15T07:20:37.393Z,75.63
2019-01-15T07:23:06.825Z,74.97
2019-01-15T07:25:36.321Z,75.01
2019-01-15T07:28:05.944Z,74.89
2019-01-15T07:30:40.030Z,74.98
2019-01-15T07:33:09.618Z,75.05
2019-01-15T07:35:39.056Z,74.82
2019-01-15T07:38:08.559Z,74.79
2019-01-15T07:40:38.059Z,74.98
2019-01-15T07:43:07.481Z,75.08
2019-01-15T07:45:36.918Z,75.21
2019-01-15T07:48:06.595Z,75.17
2019-01-15T07:50:36.014Z,74.75
2019-01-15T07:53:06.179Z,74.16
2019-01-15T07:55:35.620Z,74.20
2019-01-15T07:58:05.348Z,74.27
2019-01-15T08:00:34.845Z,74.08
2019-01-15T08:03:04.444Z,73.90
2019-01-15T08:05:33.945Z,74.17
2019-01-15T08:08:03.364Z,73.47
2019-01-15T08:10:32.861Z,73.08
2019-01-15T08:13:02.287Z,73.00
2019-01-15T08:15:31.755Z,72.84
2019-01-15T08:18:01.190Z,72.65
2019-01-15T08:20:30.689Z,71.70
2019-01-15T08:23:00.135Z,71.95
2019-01-15T08:25:29.559Z,71.70
2019-01-15T08:27:58.986Z,72.20
2019-01-15T08:30:32.394Z,71.63
2019-01-15T08:33:01.800Z,72.08
2019-01-15T08:35:31.362Z,72.06
2019-01-15T08:38:00.795Z,71.97
2019-01-15T08:40:30.250Z,72.25
2019-01-15T08:42:59.660Z,71.75
2019-01-15T08:45:29.077Z,71.84
2019-01-15T08:48:02.947Z,71.29
2019-01-15T08:50:33.581Z,71.30
2019-01-15T08:53:03.092Z,70.43
2019-01-15T08:55:32.865Z,70.22
2019-01-15T08:58:02.270Z,70.13
2019-01-15T09:00:31.746Z,70.00
2019-01-15T09:03:01.159Z,70.16
2019-01-15T09:05:30.663Z,70.36
2019-01-15T09:08:00.081Z,69.80
2019-01-15T09:10:29.527Z,70.07
2019-01-15T09:12:58.955Z,69.35
2019-01-15T09:15:28.396Z,69.11
2019-01-15T09:17:57.868Z,69.04
2019-01-15T09:20:27.302Z,69.58
2019-01-15T09:22:56.798Z,69.78
2019-01-15T09:25:26.245Z,69.74
2019-01-15T09:27:55.679Z,70.09
2019-01-15T09:30:25.189Z,69.83
2019-01-15T09:32:54.644Z,69.49
2019-01-15T09:35:24.106Z,69.91
2019-01-15T09:37:53.688Z,70.03
2019-01-15T09:40:24.459Z,69.54
2019-01-15T09:42:53.946Z,69.12
2019-01-15T09:45:24.306Z,69.09
2019-01-15T09:47:58.101Z,69.38
2019-01-15T09:50:27.540Z,68.88
2019-01-15T09:52:57.203Z,69.27
2019-01-15T09:55:26.632Z,69.47
2019-01-15T09:57:56.065Z,69.21
2019-01-15T10:00:25.560Z,69.03
2019-01-15T10:02:55.124Z,68.90
2019-01-15T10:05:24.582Z,68.60
2019-01-15T10:07:54.012Z,68.63
2019-01-15T10:10:23.479Z,68.28
2019-01-15T10:12:52.897Z,68.37
2019-01-15T10:15:22.697Z,68.30
2019-01-15T10:17:52.169Z,67.61
2019-01-15T10:20:21.596Z,67.76
2019-01-15T10:22:51.018Z,67.43
2019-01-15T10:25:27.194Z,67.72
2019-01-15T10:27:57.726Z,66.77
2019-01-15T10:30:41.892Z,66.92
2019-01-15T10:33:27.855Z,65.57
2019-01-15T10:35:57.430Z,65.31
2019-01-15T10:38:29.759Z,65.09
2019-01-15T10:40:59.263Z,64.97
2019-01-15T10:43:29.095Z,64.16
2019-01-15T10:45:58.590Z,64.00
2019-01-15T10:48:28.298Z,63.72
2019-01-15T10:50:57.720Z,62.87
2019-01-15T10:53:27.586Z,63.61
2019-01-15T10:55:57.094Z,63.55
2019-01-15T10:58:26.616Z,63.68
2019-01-15T11:00:56.033Z,63.46
2019-01-15T11:03:25.472Z,63.00
2019-01-15T11:05:54.902Z,63.55
2019-01-15T11:08:24.391Z,63.24
2019-01-15T11:10:53.852Z,62.79
2019-01-15T11:13:23.311Z,62.65
2019-01-15T11:15:52.730Z,62.31
2019-01-15T11:18:22.168Z,62.03
2019-01-15T11:20:51.592Z,62.04
2019-01-15T11:23:21.120Z,61.74
2019-01-15T11:25:50.538Z,61.09
2019-01-15T11:28:19.979Z,61.33
2019-01-15T11:30:49.429Z,61.84
2019-01-15T11:33:18.860Z,61.53
2019-01-15T11:35:48.287Z,61.78
2019-01-15T11:38:17.729Z,61.06
2019-01-15T11:40:47.153Z,61.20
2019-01-15T11:43:16.657Z,60.71
2019-01-15T11:45:46.080Z,61.15
2019-01-15T11:48:15.586Z,61.47
2019-01-15T11:50:45.011Z,62.04
2019-01-15T11:53:14.438Z,62.14
2019-01-15T11:55:43.865Z,62.20
2019-01-15T11:58:13.316Z,62.48
2019-01-15T12:00:44.408Z,62.24
2019-01-15T12:03:15.657Z,61.88
2019-01-15T12:05:49.102Z,62.70
2019-01-15T12:08:20.748Z,62.39
2019-01-15T12:11:07.968Z,62.17
2019-01-15T12:13:44.835Z,62.04
2019-01-15T12:16:20.135Z,61.72
2019-01-15T12:18:56.681Z,61.74
2019-01-15T12:21:33.314Z,61.65
2019-01-15T12:24:07.449Z,62.20
2019-01-15T12:26:38.531Z,62.22
2019-01-15T12:29:21.121Z,61.58
2019-01-15T12:32:04.004Z,61.12
2019-01-15T12:34:37.523Z,61.41
2019-01-15T12:37:11.023Z,61.19
2019-01-15T12:39:57.686Z,60.71
2019-01-15T12:42:46.699Z,60.96
2019-01-15T12:45:33.210Z,61.65
2019-01-15T12:48:10.004Z,61.45
2019-01-15T12:50:41.927Z,61.24
2019-01-15T12:53:27.575Z,60.70
2019-01-15T12:55:56.769Z,61.06
2019-01-15T12:58:42.682Z,60.34
2019-01-15T13:01:19.308Z,60.35
2019-01-15T13:03:59.136Z,60.74
2019-01-15T13:06:48.315Z,59.86
2019-01-15T13:09:35.099Z,60.20
2019-01-15T13:12:22.105Z,60.14
2019-01-15T13:15:09.317Z,60.03
2019-01-15T13:17:43.319Z,60.14
2019-01-15T13:20:19.946Z,60.28
2019-01-15T13:23:00.114Z,59.98
2019-01-15T13:25:31.211Z,60.38
2019-01-15T13:28:03.149Z,60.52
2019-01-15T13:30:40.157Z,61.04
2019-01-15T13:33:12.899Z,61.67
2019-01-15T13:35:44.101Z,61.80
2019-01-15T13:38:28.175Z,61.78
2019-01-15T13:40:59.339Z,62.44
2019-01-15T13:43:39.280Z,62.10
2019-01-15T13:46:10.316Z,62.32
2019-01-15T13:48:50.183Z,62.27
2019-01-15T13:51:39.140Z,62.26
2019-01-15T13:54:21.838Z,61.72
2019-01-15T13:56:52.888Z,62.66
2019-01-15T13:59:38.850Z,62.75
2019-01-15T14:02:16.848Z,62.54
2019-01-15T14:04:50.592Z,63.44
2019-01-15T14:07:21.650Z,63.50
2019-01-15T14:10:08.288Z,63.58
2019-01-15T14:12:54.132Z,63.99
2019-01-15T14:15:40.323Z,63.60
2019-01-15T14:18:14.135Z,63.46
2019-01-15T14:20:45.219Z,64.21
2019-01-15T14:23:42.855Z,64.37
2019-01-15T14:26:13.919Z,64.55
2019-01-15T14:28:47.913Z,64.46
2019-01-15T14:31:21.625Z,64.90
2019-01-15T14:33:50.889Z,65.51
2019-01-15T14:36:22.813Z,65.95
2019-01-15T14:38:53.977Z,65.79
2019-01-15T14:41:40.691Z,66.32
2019-01-15T14:44:15.703Z,65.92
2019-01-15T14:46:49.628Z,65.79
2019-01-15T14:49:23.678Z,66.27
2019-01-15T14:51:54.766Z,66.89
2019-01-15T14:54:40.710Z,67.08
2019-01-15T14:57:20.678Z,67.46
2019-01-15T15:00:00.203Z,67.64
2019-01-15T15:02:41.412Z,67.59
2019-01-15T15:05:14.961Z,67.37
2019-01-15T15:07:54.750Z,67.67
2019-01-15T15:10:28.277Z,67.57
2019-01-15T15:13:00.248Z,67.65
2019-01-15T15:15:34.004Z,67.98
2019-01-15T15:18:05.062Z,68.27
2019-01-15T15:20:51.099Z,68.30
2019-01-15T15:23:26.182Z,68.37
2019-01-15T15:25:59.954Z,68.46
2019-01-15T15:28:33.702Z,68.37
2019-01-15T15:31:07.792Z,68.75
2019-01-15T15:33:39.792Z,68.52
2019-01-15T15:36:26.659Z,68.26
2019-01-15T15:39:10.623Z,69.03
2019-01-15T15:41:57.736Z,69.04
2019-01-15T15:44:28.796Z,69.34
2019-01-15T15:46:59.895Z,69.53
2019-01-15T15:49:47.387Z,69.60
2019-01-15T15:52:18.491Z,69.02
2019-01-15T15:54:58.257Z,68.46
2019-01-15T15:57:27.443Z,68.65
2019-01-15T15:59:56.650Z,68.92
2019-01-15T16:02:27.789Z,68.66
2019-01-15T16:05:04.554Z,68.79
2019-01-15T16:07:47.613Z,69.05
2019-01-15T16:10:34.577Z,68.74
2019-01-15T16:13:05.729Z,69.34
2019-01-15T16:15:39.339Z,69.03
2019-01-15T16:18:14.300Z,69.13
2019-01-15T16:20:45.455Z,69.10
2019-01-15T16:23:19.136Z,69.54
2019-01-15T16:25:50.267Z,69.34
2019-01-15T16:28:24.332Z,69.15
2019-01-15T16:30:55.426Z,69.30
2019-01-15T16:33:26.499Z,69.13
2019-01-15T16:36:00.041Z,69.22
2019-01-15T16:38:31.291Z,69.15
2019-01-15T16:41:02.382Z,68.61
2019-01-15T16:43:49.069Z,68.84
2019-01-15T16:46:26.440Z,68.49
2019-01-15T16:48:55.902Z,68.25
2019-01-15T16:51:27.013Z,68.52
2019-01-15T16:53:56.283Z,68.30
2019-01-15T16:56:27.414Z,67.95
2019-01-15T16:59:04.119Z,67.78
2019-01-15T17:01:41.051Z,67.79
2019-01-15T17:04:18.999Z,67.20
2019-01-15T17:07:05.725Z,67.52
2019-01-15T17:09:39.489Z,67.40
2019-01-15T17:12:10.679Z,67.42
2019-01-15T17:14:41.750Z,67.64
2019-01-15T17:17:13.442Z,67.28
2019-01-15T17:19:50.434Z,66.56
2019-01-15T17:22:37.143Z,66.60
2019-01-15T17:25:06.880Z,66.81
2019-01-15T17:27:45.975Z,66.70
2019-01-15T17:30:17.802Z,66.62
2019-01-15T17:33:04.937Z,67.34
2019-01-15T17:35:38.703Z,67.26
2019-01-15T17:38:09.801Z,67.05
2019-01-15T17:40:42.354Z,67.51
2019-01-15T17:43:16.142Z,67.92
2019-01-15T17:45:47.262Z,67.99
2019-01-15T17:48:27.273Z,72.36
2019-01-15T17:51:29.734Z,68.51
2019-01-15T17:54:03.683Z,67.90
2019-01-15T17:56:34.702Z,66.98
2019-01-15T17:59:11.415Z,67.43
2019-01-15T18:01:54.372Z,67.83
2019-01-15T18:04:41.437Z,68.28
2019-01-15T18:07:18.264Z,68.42
2019-01-15T18:09:51.757Z,68.49
2019-01-15T18:12:37.642Z,68.89
2019-01-15T18:15:25.356Z,68.43
2019-01-15T18:17:59.127Z,74.37
2019-01-15T18:20:30.185Z,68.22
2019-01-15T18:23:20.037Z,67.64
2019-01-15T18:25:51.117Z,67.01
2019-01-15T18:28:28.042Z,67.91
2019-01-15T18:31:14.727Z,67.81
2019-01-15T18:33:45.865Z,67.78
2019-01-15T18:36:19.835Z,67.79
2019-01-15T18:39:07.035Z,68.07
2019-01-15T18:41:46.902Z,67.82
2019-01-15T18:44:17.961Z,68.47
2019-01-15T18:46:55.931Z,68.50
2019-01-15T18:49:28.104Z,68.31
2019-01-15T18:51:59.230Z,68.63
2019-01-15T18:54:44.958Z,68.04
2019-01-15T18:57:18.903Z,68.00
2019-01-15T18:59:50.402Z,67.92
2019-01-15T19:02:30.364Z,67.88
2019-01-15T19:05:04.157Z,67.58
2019-01-15T19:07:44.907Z,68.04
2019-01-15T19:10:18.437Z,68.07
2019-01-15T19:12:51.999Z,68.50
2019-01-15T19:15:25.786Z,68.23
2019-01-15T19:18:12.519Z,68.36
2019-01-15T19:20:56.596Z,68.21
2019-01-15T19:23:43.334Z,68.94
2019-01-15T19:26:14.441Z,69.00
2019-01-15T19:29:01.053Z,69.36
2019-01-15T19:31:32.100Z,69.57
2019-01-15T19:34:19.062Z,69.30
2019-01-15T19:36:50.128Z,69.21
2019-01-15T19:39:21.182Z,69.46
2019-01-15T19:41:55.034Z,69.75
2019-01-15T19:44:44.098Z,69.43
2019-01-15T19:47:25.357Z,69.59
2019-01-15T19:50:12.041Z,69.75
2019-01-15T19:52:43.109Z,69.55
2019-01-15T19:55:17.074Z,69.95
2019-01-15T19:57:56.540Z,69.59
2019-01-15T20:00:30.319Z,69.94
2019-01-15T20:03:02.171Z,69.85
2019-01-15T20:05:51.391Z,69.61
2019-01-15T20:08:24.999Z,69.36
2019-01-15T20:11:10.935Z,70.04
2019-01-15T20:13:47.471Z,69.99
2019-01-15T20:16:34.231Z,69.94
2019-01-15T20:19:16.840Z,70.13
2019-01-15T20:21:56.352Z,69.84
2019-01-15T20:24:27.440Z,70.04
2019-01-15T20:27:07.145Z,70.11
2019-01-15T20:29:40.955Z,69.46
2019-01-15T20:32:27.916Z,69.83
2019-01-15T20:35:14.925Z,69.72
2019-01-15T20:38:01.834Z,69.51
2019-01-15T20:40:32.932Z,69.53
2019-01-15T20:43:12.668Z,69.78
2019-01-15T20:46:03.540Z,69.83
2019-01-15T20:48:34.626Z,69.81
2019-01-15T20:51:21.710Z,70.03
2019-01-15T20:54:02.479Z,70.12
2019-01-15T20:56:31.767Z,69.89
2019-01-15T20:59:14.646Z,70.42
2019-01-15T21:01:45.710Z,70.52
2019-01-15T21:04:16.846Z,70.54
2019-01-15T21:06:56.561Z,70.49
2019-01-15T21:09:36.122Z,70.49
2019-01-15T21:12:19.098Z,70.56
2019-01-15T21:14:55.636Z,70.68
2019-01-15T21:17:32.835Z,70.89
2019-01-15T21:19:59.555Z,71.21
2019-01-15T21:22:30.647Z,72.03
2019-01-15T21:25:14.716Z,71.81
2019-01-15T21:27:43.917Z,71.58
2019-01-15T21:30:16.566Z,71.47
2019-01-15T21:32:53.675Z,71.64
2019-01-15T21:35:24.770Z,71.58
2019-01-15T21:37:58.556Z,71.90
2019-01-15T21:40:29.625Z,71.95
2019-01-15T21:43:00.704Z,72.03
2019-01-15T21:45:41.726Z,72.34
2019-01-15T21:48:15.488Z,72.46
2019-01-15T21:50:49.301Z,72.25
2019-01-15T21:53:29.471Z,72.26
2019-01-15T21:56:09.523Z,71.86
2019-01-15T21:58:43.310Z,71.91
2019-01-15T22:01:30.229Z,72.17
2019-01-15T22:04:17.229Z,72.26
2019-01-15T22:07:00.159Z,72.34
2019-01-15T22:09:33.705Z,72.23
2019-01-15T22:12:10.640Z,72.52
2019-01-15T22:14:41.740Z,72.58
2019-01-15T22:17:18.482Z,72.80
2019-01-15T22:19:58.397Z,72.78
2019-01-15T22:22:32.003Z,72.86
2019-01-15T22:25:18.686Z,72.69
2019-01-15T22:27:49.763Z,72.73
2019-01-15T22:30:20.864Z,72.95
2019-01-15T22:32:54.634Z,72.93
2019-01-15T22:35:40.524Z,72.69
2019-01-15T22:38:17.413Z,73.21
2019-01-15T22:40:51.196Z,73.27
2019-01-15T22:43:30.972Z,73.24
2019-01-15T22:46:02.051Z,73.31
2019-01-15T22:48:44.614Z,73.14
2019-01-15T22:51:24.340Z,73.02
2019-01-15T22:54:01.097Z,73.12
2019-01-15T22:56:34.855Z,73.24
2019-01-15T22:59:14.424Z,73.50
2019-01-15T23:01:54.127Z,73.39
2019-01-15T23:04:41.433Z,73.38
2019-01-15T23:07:12.507Z,73.72
2019-01-15T23:09:52.274Z,73.47
2019-01-15T23:12:38.474Z,73.52
2019-01-15T23:15:25.884Z,73.23
2019-01-15T23:18:11.591Z,73.62
2019-01-15T23:20:42.683Z,73.41
2019-01-15T23:23:29.845Z,73.72
2019-01-15T23:26:00.918Z,73.53
2019-01-15T23:28:34.931Z,73.58
2019-01-15T23:31:21.876Z,73.62
2019-01-15T23:34:08.887Z,73.44
2019-01-15T23:36:42.371Z,73.62
2019-01-15T23:39:19.446Z,73.74
2019-01-15T23:41:53.422Z,73.45
2019-01-15T23:44:24.512Z,73.53
2019-01-15T23:47:11.498Z,73.44
2019-01-15T23:49:48.050Z,73.57
2019-01-15T23:52:21.928Z,73.62
2019-01-15T23:54:58.787Z,73.83
2019-01-15T23:57:32.749Z,74.08
